createdAt,value
2023-01-09T00:04:44.109Z,81.50
2023-01-09T00:09:46.975Z,81.38
2023-01-09T00:14:49.791Z,81.70
2023-01-09T00:19:53.997Z,81.59
2023-01-09T00:24:56.710Z,81.96
2023-01-09T00:29:59.665Z,81.45
2023-01-09T00:35:04.118Z,81.44
2023-01-09T00:40:07.476Z,81.19
2023-01-09T00:45:12.802Z,81.67
2023-01-09T00:50:24.793Z,81.69
2023-01-09T00:55:27.594Z,81.43
2023-01-09T01:00:30.503Z,81.77
2023-01-09T01:05:48.475Z,81.77
2023-01-09T01:10:51.345Z,81.28
2023-01-09T01:15:54.134Z,81.28
2023-01-09T01:20:58.259Z,81.63
2023-01-09T01:26:05.730Z,81.62
2023-01-09T01:31:08.562Z,81.32
2023-01-09T01:36:12.845Z,81.39
2023-01-09T01:41:29.226Z,80.83
2023-01-09T01:46:34.040Z,80.53
2023-01-09T01:51:41.495Z,80.57
2023-01-09T01:56:46.118Z,80.19
2023-01-09T02:01:51.796Z,80.22
2023-01-09T02:06:57.450Z,79.89
2023-01-09T02:12:01.253Z,80.02
2023-01-09T02:17:10.838Z,79.97
2023-01-09T02:22:21.267Z,80.07
2023-01-09T02:27:52.248Z,79.86
2023-01-09T02:33:13.662Z,80.08
2023-01-09T02:38:23.460Z,80.29
2023-01-09T02:43:26.621Z,79.95
2023-01-09T02:48:31.785Z,79.79
2023-01-09T02:53:48.099Z,79.58
2023-01-09T02:59:17.528Z,79.95
2023-01-09T03:04:28.575Z,79.63
2023-01-09T03:09:37.007Z,79.93
2023-01-09T03:14:44.381Z,79.96
2023-01-09T03:19:49.765Z,80.47
2023-01-09T03:24:52.480Z,80.57
2023-01-09T03:29:56.580Z,80.54
2023-01-09T03:35:01.838Z,80.84
2023-01-09T03:40:05.246Z,81.06
2023-01-09T03:45:08.451Z,80.90
2023-01-09T03:50:13.021Z,81.16
2023-01-09T03:55:15.896Z,81.38
2023-01-09T04:00:19.584Z,81.86
2023-01-09T04:05:23.900Z,81.68
2023-01-09T04:10:26.683Z,82.01
2023-01-09T04:15:29.441Z,82.22
2023-01-09T04:20:33.641Z,82.49
2023-01-09T04:25:36.382Z,82.68
2023-01-09T04:30:39.170Z,82.50
2023-01-09T04:35:43.272Z,82.91
2023-01-09T04:40:47.917Z,82.88
2023-01-09T04:45:50.721Z,83.11
2023-01-09T04:50:54.903Z,83.59
2023-01-09T04:55:57.638Z,83.55
2023-01-09T05:01:00.443Z,83.62
2023-01-09T05:06:05.018Z,83.80
2023-01-09T05:11:07.884Z,84.30
2023-01-09T05:16:10.869Z,84.19
2023-01-09T05:21:15.074Z,84.01
2023-01-09T05:26:17.776Z,84.42
2023-01-09T05:31:21.453Z,84.27
2023-01-09T05:36:25.697Z,84.38
2023-01-09T05:41:28.464Z,84.44
2023-01-09T05:46:31.131Z,84.42
2023-01-09T05:51:35.214Z,84.35
2023-01-09T05:56:37.913Z,84.34
2023-01-09T06:01:40.719Z,84.47
2023-01-09T06:06:44.846Z,84.39
2023-01-09T06:11:47.839Z,84.52
2023-01-09T06:16:51.221Z,84.13
2023-01-09T06:21:55.420Z,83.94
2023-01-09T06:26:58.213Z,83.84
2023-01-09T06:32:00.924Z,84.24
2023-01-09T06:37:05.117Z,84.08
2023-01-09T06:42:08.245Z,84.05
2023-01-09T06:47:10.998Z,84.30
2023-01-09T06:52:15.058Z,84.33
2023-01-09T06:57:17.789Z,84.00
2023-01-09T07:02:22.343Z,84.47
2023-01-09T07:07:26.561Z,84.20
2023-01-09T07:12:29.476Z,83.86
2023-01-09T07:17:32.741Z,84.05
2023-01-09T07:22:36.981Z,84.03
2023-01-09T07:27:39.974Z,83.82
2023-01-09T07:32:42.929Z,83.86
2023-01-09T07:37:47.691Z,84.00
2023-01-09T07:42:50.497Z,83.68
2023-01-09T07:47:53.234Z,83.54
2023-01-09T07:52:57.384Z,83.67
2023-01-09T07:58:00.117Z,83.88
2023-01-09T08:03:02.951Z,83.78
2023-01-09T08:08:07.497Z,83.51
2023-01-09T08:13:10.339Z,83.43
2023-01-09T08:18:13.120Z,83.65
2023-01-09T08:23:17.265Z,83.55
2023-01-09T08:28:20.074Z,83.55
2023-01-09T08:33:22.893Z,83.55
2023-01-09T08:38:27.003Z,83.35
2023-01-09T08:43:47.127Z,83.46
2023-01-09T08:48:49.874Z,83.33
2023-01-09T08:53:53.961Z,83.10
2023-01-09T08:58:56.704Z,83.41
2023-01-09T09:03:59.425Z,83.16
2023-01-09T09:09:03.868Z,82.90
2023-01-09T09:14:26.860Z,83.15
2023-01-09T09:19:29.580Z,83.03
2023-01-09T09:24:33.636Z,83.25
2023-01-09T09:29:36.418Z,82.95
2023-01-09T09:34:39.216Z,83.11
2023-01-09T09:39:43.418Z,82.93
2023-01-09T09:44:59.130Z,83.14
2023-01-09T09:50:07.723Z,82.94
2023-01-09T09:55:17.953Z,83.51
2023-01-09T10:00:22.109Z,83.50
2023-01-09T10:05:28.718Z,82.95
2023-01-09T10:10:36.306Z,82.47
2023-01-09T10:15:51.669Z,82.49
2023-01-09T10:20:58.546Z,81.71
2023-01-09T10:26:07.981Z,81.11
2023-01-09T10:31:16.293Z,80.91
2023-01-09T10:36:38.096Z,80.57
2023-01-09T10:41:46.213Z,80.68
2023-01-09T10:46:53.130Z,80.45
2023-01-09T10:52:05.459Z,79.96
2023-01-09T10:57:16.144Z,78.77
2023-01-09T11:02:28.719Z,78.09
2023-01-09T11:07:34.854Z,77.42
2023-01-09T11:12:40.231Z,76.51
2023-01-09T11:17:43.471Z,75.79
2023-01-09T11:22:47.670Z,75.80
2023-01-09T11:28:05.125Z,75.46
2023-01-09T11:33:15.436Z,75.25
2023-01-09T11:38:18.611Z,75.19
2023-01-09T11:43:30.746Z,72.59
2023-01-09T11:48:39.355Z,74.08
2023-01-09T11:53:47.137Z,74.92
2023-01-09T11:58:51.194Z,71.02
2023-01-09T12:04:12.998Z,71.85
2023-01-09T12:09:20.279Z,72.67
2023-01-09T12:14:32.269Z,75.44
2023-01-09T12:19:54.495Z,76.35
2023-01-09T12:25:17.697Z,76.28
2023-01-09T12:30:28.968Z,76.68
2023-01-09T12:35:36.644Z,75.74
2023-01-09T12:40:49.731Z,76.40
2023-01-09T12:46:03.766Z,76.73
2023-01-09T12:51:12.669Z,76.74
2023-01-09T12:56:18.138Z,76.83
2023-01-09T13:01:25.403Z,76.71
2023-01-09T13:06:30.013Z,76.49
2023-01-09T13:11:35.713Z,76.36
2023-01-09T13:16:43.414Z,75.50
2023-01-09T13:21:46.523Z,74.47
2023-01-09T13:26:51.937Z,75.18
2023-01-09T13:32:11.243Z,75.32
2023-01-09T13:37:22.131Z,75.71
2023-01-09T13:42:39.700Z,75.35
2023-01-09T13:47:44.248Z,74.64
2023-01-09T13:52:46.949Z,75.09
2023-01-09T13:58:25.946Z,75.25
2023-01-09T14:03:33.486Z,75.11
2023-01-09T14:08:36.267Z,74.70
2023-01-09T14:13:44.905Z,74.85
2023-01-09T14:18:51.188Z,74.99
2023-01-09T14:24:03.444Z,75.65
2023-01-09T14:29:37.904Z,75.50
2023-01-09T14:34:43.538Z,76.19
2023-01-09T14:39:47.484Z,76.22
2023-01-09T14:44:52.154Z,76.35
2023-01-09T14:49:59.696Z,76.27
2023-01-09T14:55:04.054Z,75.88
2023-01-09T15:00:16.470Z,75.73
2023-01-09T15:05:23.531Z,76.17
2023-01-09T15:10:29.982Z,76.17
2023-01-09T15:15:32.783Z,75.82
2023-01-09T15:20:37.119Z,76.06
2023-01-09T15:25:40.933Z,75.92
2023-01-09T15:30:43.936Z,76.46
2023-01-09T15:35:50.092Z,76.44
2023-01-09T15:40:54.947Z,77.03
2023-01-09T15:45:58.328Z,77.27
2023-01-09T15:51:06.708Z,77.02
2023-01-09T15:56:20.577Z,77.06
2023-01-09T16:01:29.751Z,77.35
2023-01-09T16:06:35.566Z,77.23
2023-01-09T16:11:39.536Z,77.09
2023-01-09T16:16:42.696Z,76.79
2023-01-09T16:21:57.802Z,76.67
2023-01-09T16:27:23.948Z,76.92
2023-01-09T16:32:29.559Z,76.83
2023-01-09T16:37:34.064Z,76.86
2023-01-09T16:42:54.754Z,76.97
2023-01-09T16:47:58.226Z,76.57
2023-01-09T16:53:07.525Z,76.94
2023-01-09T16:58:14.246Z,77.09
2023-01-09T17:03:19.188Z,77.09
2023-01-09T17:08:25.283Z,77.32
2023-01-09T17:13:28.162Z,76.92
2023-01-09T17:18:30.947Z,77.42
2023-01-09T17:23:35.073Z,77.14
2023-01-09T17:28:38.553Z,77.41
2023-01-09T17:33:42.056Z,77.60
2023-01-09T17:38:47.165Z,77.28
2023-01-09T17:43:50.110Z,77.47
2023-01-09T17:48:54.170Z,77.51
2023-01-09T17:53:58.576Z,77.83
2023-01-09T17:59:02.569Z,77.95
2023-01-09T18:04:05.467Z,78.14
2023-01-09T18:09:10.914Z,78.30
2023-01-09T18:14:14.080Z,78.24
2023-01-09T18:19:16.983Z,78.17
2023-01-09T18:24:21.149Z,78.19
2023-01-09T18:29:24.231Z,77.95
2023-01-09T18:34:27.002Z,77.87
2023-01-09T18:39:31.407Z,77.93
2023-01-09T18:44:34.123Z,77.89
2023-01-09T18:49:36.924Z,78.01
2023-01-09T18:54:42.646Z,78.36
2023-01-09T18:59:45.410Z,78.28
2023-01-09T19:04:48.257Z,78.02
2023-01-09T19:09:52.527Z,78.46
2023-01-09T19:14:55.698Z,78.19
2023-01-09T19:19:58.441Z,78.35
2023-01-09T19:25:02.513Z,78.44
2023-01-09T19:30:06.380Z,78.26
2023-01-09T19:35:09.915Z,78.26
2023-01-09T19:40:14.702Z,78.29
2023-01-09T19:45:17.492Z,78.41
2023-01-09T19:50:21.870Z,78.48
2023-01-09T19:55:26.005Z,79.04
2023-01-09T20:00:28.725Z,79.29
2023-01-09T20:05:31.527Z,78.86
2023-01-09T20:10:35.782Z,78.99
2023-01-09T20:15:38.776Z,79.04
2023-01-09T20:20:44.507Z,78.71
2023-01-09T20:25:48.938Z,79.06
2023-01-09T20:30:53.546Z,79.19
2023-01-09T20:35:56.347Z,79.25
2023-01-09T20:41:08.290Z,78.85
2023-01-09T20:46:11.101Z,79.17
2023-01-09T20:51:14.632Z,79.21
2023-01-09T20:56:18.919Z,79.25
2023-01-09T21:01:22.931Z,79.24
2023-01-09T21:06:26.633Z,79.19
2023-01-09T21:11:30.995Z,79.35
2023-01-09T21:16:33.833Z,79.62
2023-01-09T21:21:36.607Z,79.60
2023-01-09T21:26:40.921Z,79.29
2023-01-09T21:31:44.171Z,79.30
2023-01-09T21:36:48.749Z,79.61
2023-01-09T21:42:10.671Z,79.58
2023-01-09T21:47:13.574Z,79.75
2023-01-09T21:52:18.237Z,79.81
2023-01-09T21:57:22.556Z,79.75
2023-01-09T22:02:25.563Z,79.63
2023-01-09T22:07:28.440Z,79.48
2023-01-09T22:12:32.565Z,79.04
2023-01-09T22:17:35.328Z,79.30
2023-01-09T22:22:38.045Z,79.49
2023-01-09T22:27:42.173Z,79.63
2023-01-09T22:32:45.077Z,79.67
2023-01-09T22:37:47.998Z,79.22
2023-01-09T22:42:54.218Z,79.27
2023-01-09T22:47:56.986Z,79.40
2023-01-09T22:52:59.747Z,79.51
2023-01-09T22:58:03.818Z,79.82
2023-01-09T23:03:06.526Z,79.86
2023-01-09T23:08:09.289Z,79.71
2023-01-09T23:13:13.457Z,79.83
2023-01-09T23:18:16.277Z,79.55
2023-01-09T23:23:20.779Z,79.54
2023-01-09T23:28:25.655Z,79.36
2023-01-09T23:33:28.442Z,79.74
2023-01-09T23:38:31.419Z,80.07
2023-01-09T23:43:35.927Z,80.21
2023-01-09T23:48:38.845Z,80.09
2023-01-09T23:53:41.641Z,80.26
2023-01-09T23:58:45.738Z,80.32
